Time;durP1;ratioP1;P1;durP2;ratioP2;P2;SDS_P1;SDS_P2;PMS_P1;PMS_P2;Temp;Humidity;BMP_temperature;BMP_pressure;BME280_temperature;BME280_humidity;BME280_pressure;Samples;Min_cycle;Max_cycle;Signal;HPM_P1;HPM_P2
2023/05/29 00:01:43;;;;;;;5.20;3.30;;;13.70;98.90;;;;;;5174130;28;20822;-46
2023/05/29 00:04:14;;;;;;;7.80;3.63;;;13.70;98.80;;;;;;5169403;28;20217;-48
2023/05/29 00:06:45;;;;;;;9.70;3.50;;;13.70;98.70;;;;;;5165510;28;20195;-46
2023/05/29 00:09:16;;;;;;;15.73;3.53;;;13.70;98.60;;;;;;5163199;28;20312;-46
2023/05/29 00:11:50;;;;;;;7.60;4.30;;;13.70;98.50;;;;;;5179305;28;20188;-47
2023/05/29 00:14:22;;;;;;;11.73;3.50;;;13.60;98.50;;;;;;5171269;28;20598;-48
2023/05/29 00:16:52;;;;;;;6.47;3.03;;;13.60;98.50;;;;;;5163041;28;20471;-47
2023/05/29 00:19:24;;;;;;;7.77;3.73;;;13.60;98.60;;;;;;5172760;28;20792;-47
2023/05/29 00:21:55;;;;;;;4.30;3.20;;;13.50;98.80;;;;;;5162264;28;20650;-47
2023/05/29 00:24:26;;;;;;;6.03;3.60;;;13.50;99.00;;;;;;5174842;28;20458;-48
2023/05/29 00:26:56;;;;;;;7.20;3.40;;;13.40;99.20;;;;;;5164079;28;20219;-48
2023/05/29 00:29:27;;;;;;;8.33;3.70;;;13.40;99.40;;;;;;5168024;28;20209;-47
2023/05/29 00:31:58;;;;;;;6.67;3.50;;;13.40;99.60;;;;;;5161811;28;20818;-47
2023/05/29 00:34:29;;;;;;;7.63;2.80;;;13.30;99.80;;;;;;5164612;28;20444;-46
2023/05/29 00:36:59;;;;;;;9.17;3.60;;;13.20;99.90;;;;;;5166551;28;20609;-47
2023/05/29 00:39:30;;;;;;;13.10;4.30;;;13.20;99.90;;;;;;5162599;28;20217;-47
2023/05/29 00:42:01;;;;;;;12.03;3.30;;;13.20;99.90;;;;;;5171717;28;20230;-47
2023/05/29 00:44:31;;;;;;;6.90;3.50;;;13.20;99.90;;;;;;5173834;28;20199;-47
2023/05/29 00:47:02;;;;;;;6.77;3.80;;;13.20;99.90;;;;;;5167656;28;20184;-46
2023/05/29 00:49:36;;;;;;;7.47;3.63;;;13.20;99.90;;;;;;5164220;28;20295;-46
2023/05/29 00:52:09;;;;;;;11.63;3.37;;;13.20;99.90;;;;;;5155727;28;20178;-48
2023/05/29 00:54:45;;;;;;;4.20;3.40;;;13.20;99.90;;;;;;5169217;28;20531;-46
2023/05/29 00:57:17;;;;;;;11.43;3.80;;;13.20;99.90;;;;;;5173345;28;20434;-47
2023/05/29 00:59:47;;;;;;;6.23;3.73;;;13.20;99.90;;;;;;5171954;28;20814;-46
2023/05/29 01:02:20;;;;;;;7.93;3.27;;;13.20;99.90;;;;;;5161365;28;20518;-48
2023/05/29 01:04:54;;;;;;;7.90;4.10;;;13.10;99.90;;;;;;5174726;28;20338;-49
2023/05/29 01:07:25;;;;;;;7.07;4.00;;;13.10;99.90;;;;;;5164722;28;20840;-48
2023/05/29 01:09:56;;;;;;;7.00;3.23;;;13.10;99.90;;;;;;5160063;28;20524;-47
2023/05/29 01:12:43;;;;;;;5.07;3.47;;;13.00;99.90;;;;;;5169406;28;20479;-47
2023/05/29 01:15:37;;;;;;;4.20;3.23;;;13.00;99.90;;;;;;5170153;28;20185;-48
2023/05/29 01:18:20;;;;;;;5.80;3.27;;;12.90;99.90;;;;;;5164837;28;20436;-46
2023/05/29 01:21:08;;;;;;;4.27;3.33;;;12.80;99.90;;;;;;5170287;28;20957;-47
2023/05/29 01:23:56;;;;;;;10.50;3.40;;;12.80;99.90;;;;;;5164842;28;20534;-46
2023/05/29 01:26:52;;;;;;;7.90;3.73;;;12.70;99.90;;;;;;5165971;28;20447;-48
2023/05/29 01:29:29;;;;;;;9.23;3.20;;;12.70;99.90;;;;;;5149045;28;20495;-47
2023/05/29 01:32:04;;;;;;;3.53;3.17;;;12.60;99.90;;;;;;5171335;28;20435;-47
2023/05/29 01:34:35;;;;;;;9.83;4.53;;;12.50;99.90;;;;;;5161200;28;20530;-47
2023/05/29 01:37:05;;;;;;;9.60;3.77;;;12.50;99.90;;;;;;5165047;28;20532;-47
2023/05/29 01:39:36;;;;;;;4.90;3.70;;;12.50;99.90;;;;;;5166903;28;20185;-48
2023/05/29 01:42:08;;;;;;;6.83;3.60;;;12.40;99.90;;;;;;5164195;28;20212;-47
2023/05/29 01:44:39;;;;;;;6.77;4.13;;;12.40;99.90;;;;;;5162707;28;20200;-47
2023/05/29 01:47:10;;;;;;;4.80;3.73;;;12.40;99.90;;;;;;5149359;28;20523;-47
2023/05/29 01:49:42;;;;;;;9.47;4.17;;;12.40;99.90;;;;;;5170661;28;20553;-47
2023/05/29 01:52:12;;;;;;;5.17;3.70;;;12.30;99.90;;;;;;5179159;28;20177;-47
2023/05/29 01:54:44;;;;;;;10.07;4.00;;;12.20;99.90;;;;;;5174596;28;20439;-48
2023/05/29 01:57:15;;;;;;;4.37;3.83;;;12.20;99.90;;;;;;5176615;28;20181;-47
2023/05/29 01:59:47;;;;;;;15.83;5.23;;;12.20;99.90;;;;;;5169743;28;20451;-46
2023/05/29 02:02:18;;;;;;;6.53;4.03;;;12.20;99.90;;;;;;5167454;28;20470;-48
2023/05/29 02:04:48;;;;;;;7.50;4.67;;;12.10;99.90;;;;;;5172223;28;20430;-47
2023/05/29 02:07:20;;;;;;;5.10;3.50;;;12.10;99.90;;;;;;5168528;28;20212;-46
2023/05/29 02:09:50;;;;;;;12.03;4.20;;;12.10;99.90;;;;;;5166025;28;20284;-47
2023/05/29 02:12:21;;;;;;;15.27;4.37;;;12.10;99.90;;;;;;5180127;28;20539;-48
2023/05/29 02:14:52;;;;;;;8.13;4.17;;;12.00;99.90;;;;;;5162001;28;20189;-46
2023/05/29 02:17:23;;;;;;;8.17;4.07;;;12.00;99.90;;;;;;5162877;28;20288;-47
2023/05/29 02:19:53;;;;;;;7.53;5.07;;;12.00;99.90;;;;;;5158832;28;20185;-46
2023/05/29 02:22:24;;;;;;;6.43;3.67;;;11.90;99.90;;;;;;5161465;28;20212;-46
2023/05/29 02:24:55;;;;;;;7.83;3.80;;;11.90;99.90;;;;;;5171484;28;20641;-46
2023/05/29 02:27:25;;;;;;;5.10;4.07;;;11.80;99.90;;;;;;5164603;28;20758;-46
2023/05/29 02:29:56;;;;;;;13.37;3.80;;;11.80;99.90;;;;;;5160903;28;20997;-47
2023/05/29 02:32:28;;;;;;;9.10;3.37;;;11.80;99.90;;;;;;5160006;28;20216;-46
2023/05/29 02:34:58;;;;;;;9.63;4.10;;;11.80;99.90;;;;;;5163685;28;20169;-47
2023/05/29 02:37:29;;;;;;;5.20;3.80;;;11.70;99.90;;;;;;5166129;28;21599;-49
2023/05/29 02:40:00;;;;;;;8.73;4.87;;;11.70;99.90;;;;;;5157844;28;20177;-46
2023/05/29 02:42:30;;;;;;;6.43;3.73;;;11.70;99.90;;;;;;5168152;28;20744;-47
2023/05/29 02:45:01;;;;;;;6.77;4.00;;;11.60;99.90;;;;;;5166985;28;20181;-47
2023/05/29 02:47:32;;;;;;;8.47;3.93;;;11.60;99.90;;;;;;5163352;28;20269;-46
2023/05/29 02:50:04;;;;;;;7.40;3.50;;;11.60;99.90;;;;;;5164946;28;20775;-47
2023/05/29 02:52:36;;;;;;;3.63;3.30;;;11.50;99.90;;;;;;5167924;28;20223;-45
2023/05/29 02:55:07;;;;;;;7.20;3.83;;;11.50;99.90;;;;;;5178767;28;20433;-47
2023/05/29 02:57:38;;;;;;;10.57;5.40;;;11.50;99.90;;;;;;5169593;28;20499;-46
2023/05/29 03:00:09;;;;;;;7.30;4.47;;;11.50;99.90;;;;;;5171316;28;20191;-48
2023/05/29 03:02:40;;;;;;;6.70;3.33;;;11.50;99.90;;;;;;5167585;28;20208;-47
2023/05/29 03:05:10;;;;;;;7.03;4.57;;;11.40;99.90;;;;;;5171332;28;20841;-47
2023/05/29 03:07:41;;;;;;;7.67;4.03;;;11.50;99.90;;;;;;5163208;28;20199;-47
2023/05/29 03:10:12;;;;;;;7.70;4.67;;;11.50;99.90;;;;;;5164910;28;20206;-46
2023/05/29 03:12:44;;;;;;;10.00;4.17;;;11.50;99.90;;;;;;5166581;28;20601;-47
2023/05/29 03:15:15;;;;;;;7.97;4.10;;;11.50;99.90;;;;;;5170144;28;20781;-46
2023/05/29 03:17:46;;;;;;;10.53;4.17;;;11.40;99.90;;;;;;5168352;28;20539;-46
2023/05/29 03:20:17;;;;;;;11.50;3.93;;;11.40;99.90;;;;;;5166885;28;20273;-47
2023/05/29 03:22:47;;;;;;;11.87;4.90;;;11.40;99.90;;;;;;5177317;28;20463;-46
2023/05/29 03:25:20;;;;;;;7.30;3.57;;;11.40;99.90;;;;;;5171472;28;20241;-47
2023/05/29 03:27:50;;;;;;;11.43;3.60;;;11.50;99.90;;;;;;5169550;28;20730;-47
2023/05/29 03:30:21;;;;;;;6.20;3.87;;;11.40;99.90;;;;;;5164076;28;20562;-46
2023/05/29 03:32:51;;;;;;;9.60;4.23;;;11.40;99.90;;;;;;5163388;28;20290;-46
2023/05/29 03:35:22;;;;;;;7.47;3.37;;;11.50;99.90;;;;;;5165430;28;20621;-45
2023/05/29 03:37:53;;;;;;;12.10;4.57;;;11.50;99.90;;;;;;5164615;28;20226;-46
2023/05/29 03:40:23;;;;;;;3.73;3.53;;;11.50;99.90;;;;;;5174311;28;20199;-45
2023/05/29 03:42:54;;;;;;;7.70;4.00;;;11.60;99.90;;;;;;5185278;23;20306;-46
2023/05/29 03:45:25;;;;;;;4.57;3.63;;;11.60;99.90;;;;;;5183080;28;20184;-46
2023/05/29 03:47:56;;;;;;;17.77;4.30;;;11.70;99.90;;;;;;5185462;28;20189;-44
2023/05/29 03:50:27;;;;;;;5.77;3.97;;;11.70;99.90;;;;;;5164069;28;20477;-46
2023/05/29 03:52:58;;;;;;;8.50;3.53;;;11.70;99.90;;;;;;5167065;28;20863;-46
2023/05/29 03:55:29;;;;;;;13.57;4.60;;;11.80;99.90;;;;;;5187190;28;20498;-45
2023/05/29 03:57:59;;;;;;;8.10;3.57;;;11.80;99.90;;;;;;5168002;28;20180;-44
2023/05/29 04:00:30;;;;;;;7.10;4.17;;;11.90;99.90;;;;;;5182619;28;20203;-45
2023/05/29 04:03:02;;;;;;;5.63;3.43;;;12.00;99.90;;;;;;5181900;28;20568;-45
2023/05/29 04:05:32;;;;;;;5.23;3.37;;;12.00;99.90;;;;;;5171531;28;21051;-45
2023/05/29 04:08:04;;;;;;;5.07;3.20;;;12.10;99.90;;;;;;5186393;28;20522;-45
2023/05/29 04:10:35;;;;;;;3.77;3.47;;;12.20;99.90;;;;;;5169078;28;20201;-44
2023/05/29 04:13:08;;;;;;;5.33;3.57;;;12.30;99.90;;;;;;5186308;28;20458;-45
2023/05/29 04:15:39;;;;;;;6.53;3.90;;;12.40;99.90;;;;;;5190554;28;20185;-44
2023/05/29 04:18:10;;;;;;;5.23;3.63;;;12.60;99.90;;;;;;5175418;28;20847;-43
2023/05/29 04:20:41;;;;;;;6.30;3.57;;;12.70;99.90;;;;;;5184627;28;20203;-44
2023/05/29 04:23:13;;;;;;;3.67;3.33;;;12.90;99.90;;;;;;5185679;28;20664;-44
2023/05/29 04:25:43;;;;;;;3.60;3.30;;;13.20;99.90;;;;;;5184931;28;20511;-44
2023/05/29 04:28:15;;;;;;;5.17;3.57;;;13.40;99.90;;;;;;5183934;28;20450;-44
2023/05/29 04:30:49;;;;;;;3.33;3.03;;;13.70;99.90;;;;;;5187205;28;20491;-44
2023/05/29 04:33:20;;;;;;;4.40;2.87;;;13.80;99.90;;;;;;5188822;28;20550;-45
2023/05/29 04:35:52;;;;;;;6.70;3.60;;;13.80;99.90;;;;;;5188989;28;20885;-44
2023/05/29 04:38:25;;;;;;;9.53;4.20;;;13.90;99.90;;;;;;5189839;28;20985;-49
2023/05/29 04:40:59;;;;;;;3.77;3.10;;;14.10;99.90;;;;;;5188969;28;20441;-45
2023/05/29 04:43:32;;;;;;;9.07;3.33;;;14.20;99.90;;;;;;5187948;28;20514;-44
2023/05/29 04:46:03;;;;;;;3.53;2.50;;;14.20;99.90;;;;;;5188686;28;20447;-45
2023/05/29 04:48:34;;;;;;;8.70;3.70;;;14.10;99.90;;;;;;5183774;28;20447;-43
2023/05/29 04:51:05;;;;;;;5.87;3.17;;;14.40;99.90;;;;;;5167390;28;20236;-45
2023/05/29 04:53:40;;;;;;;3.63;3.37;;;14.60;99.90;;;;;;5184057;28;20216;-44
2023/05/29 04:56:10;;;;;;;5.00;2.47;;;14.60;99.90;;;;;;5168885;28;20443;-45
2023/05/29 04:58:42;;;;;;;5.60;3.20;;;14.70;99.90;;;;;;5167664;28;20486;-46
2023/05/29 05:01:17;;;;;;;4.90;3.00;;;14.80;99.90;;;;;;5186177;28;20196;-45
2023/05/29 05:03:47;;;;;;;10.57;3.60;;;14.90;99.30;;;;;;5168712;28;20528;-46
2023/05/29 05:06:18;;;;;;;5.33;3.50;;;14.70;99.40;;;;;;5167165;28;20439;-45
2023/05/29 05:08:49;;;;;;;4.57;2.67;;;14.50;99.80;;;;;;5183922;28;20204;-45
2023/05/29 05:11:22;;;;;;;5.23;2.90;;;14.80;99.90;;;;;;5166739;28;20443;-45
2023/05/29 05:13:53;;;;;;;3.30;3.10;;;15.30;98.60;;;;;;5168010;28;20429;-46
2023/05/29 05:16:24;;;;;;;6.13;3.23;;;16.00;96.80;;;;;;5169753;28;20462;-45
2023/05/29 05:18:54;;;;;;;2.90;2.70;;;16.80;93.30;;;;;;5168250;28;20447;-45
2023/05/29 05:21:25;;;;;;;8.30;2.70;;;17.80;92.10;;;;;;5184559;28;20180;-45
2023/05/29 05:23:56;;;;;;;5.70;2.27;;;19.00;80.40;;;;;;5183535;28;20209;-45
2023/05/29 05:26:26;;;;;;;3.00;2.30;;;20.10;69.70;;;;;;5181668;28;20190;-45
2023/05/29 05:28:57;;;;;;;4.67;2.70;;;20.80;63.10;;;;;;5183801;28;20192;-45
2023/05/29 05:31:28;;;;;;;4.20;2.50;;;20.90;59.60;;;;;;5164707;28;20601;-45
2023/05/29 05:33:59;;;;;;;2.73;2.37;;;20.60;57.50;;;;;;5183361;28;20208;-45
2023/05/29 05:36:31;;;;;;;3.33;2.33;;;21.80;57.70;;;;;;5167305;28;20670;-45
2023/05/29 05:39:07;;;;;;;2.87;1.93;;;22.60;51.40;;;;;;5166784;28;20234;-46
2023/05/29 05:41:43;;;;;;;3.17;2.60;;;23.00;51.90;;;;;;5169660;28;20454;-46
2023/05/29 05:44:13;;;;;;;2.50;1.90;;;24.70;47.20;;;;;;5180296;28;20525;-46
2023/05/29 05:46:46;;;;;;;4.17;2.57;;;26.10;43.80;;;;;;5184872;28;20534;-46
2023/05/29 05:49:16;;;;;;;5.60;2.17;;;27.00;41.00;;;;;;5186691;28;20692;-46
2023/05/29 05:51:47;;;;;;;6.10;2.47;;;27.80;38.90;;;;;;5169880;28;20442;-46
2023/05/29 05:54:18;;;;;;;2.40;2.20;;;28.00;37.40;;;;;;5170702;28;20204;-45
2023/05/29 05:56:50;;;;;;;2.53;1.93;;;28.10;37.30;;;;;;5169736;28;20207;-47
2023/05/29 05:59:20;;;;;;;2.73;2.00;;;28.80;35.10;;;;;;5183599;28;20307;-46
2023/05/29 06:01:51;;;;;;;2.67;2.30;;;28.80;35.00;;;;;;5175099;28;20538;-45
2023/05/29 06:04:22;;;;;;;1.63;1.57;;;29.10;34.40;;;;;;5187104;28;20211;-45
2023/05/29 06:06:53;;;;;;;1.97;1.87;;;29.50;34.20;;;;;;5169184;28;20272;-45
2023/05/29 06:09:24;;;;;;;6.23;2.30;;;30.70;32.00;;;;;;5187511;28;20204;-46
2023/05/29 06:11:55;;;;;;;3.30;2.37;;;30.30;31.60;;;;;;5153437;28;20176;-46
2023/05/29 06:14:26;;;;;;;1.73;1.63;;;29.70;32.20;;;;;;5177946;28;20458;-46
2023/05/29 06:17:00;;;;;;;1.90;1.80;;;30.70;31.70;;;;;;5180305;28;20266;-46
2023/05/29 06:19:31;;;;;;;3.77;1.40;;;31.90;30.10;;;;;;5159377;28;20798;-47
2023/05/29 06:22:02;;;;;;;4.60;1.67;;;30.20;30.00;;;;;;5180255;28;20435;-46
2023/05/29 06:24:33;;;;;;;1.33;1.33;;;28.50;32.30;;;;;;5163258;28;20433;-45
2023/05/29 06:27:04;;;;;;;1.67;1.57;;;28.40;32.20;;;;;;5173933;28;20448;-45
2023/05/29 06:29:39;;;;;;;2.27;2.07;;;27.70;33.10;;;;;;5177779;28;20207;-46
2023/05/29 06:32:12;;;;;;;3.37;2.43;;;26.30;34.00;;;;;;5180024;28;20432;-46
2023/05/29 06:34:43;;;;;;;1.67;1.57;;;26.50;34.80;;;;;;5165178;28;20462;-45
2023/05/29 06:37:14;;;;;;;2.03;1.70;;;28.30;32.80;;;;;;5180900;28;20439;-46
2023/05/29 06:39:48;;;;;;;1.70;1.53;;;29.30;31.00;;;;;;5173204;28;20188;-45
2023/05/29 06:42:19;;;;;;;4.33;1.67;;;28.50;31.00;;;;;;5184018;28;20805;-46
2023/05/29 06:44:50;;;;;;;3.17;1.50;;;29.00;31.40;;;;;;5167583;28;20579;-46
2023/05/29 06:47:21;;;;;;;1.97;1.57;;;28.90;30.60;;;;;;5182563;28;20197;-45
2023/05/29 06:49:52;;;;;;;1.70;1.60;;;29.10;31.30;;;;;;5182954;28;20974;-46
2023/05/29 06:52:23;;;;;;;1.93;1.70;;;29.00;31.10;;;;;;5186544;28;20228;-45
2023/05/29 06:54:55;;;;;;;1.70;1.70;;;29.20;31.20;;;;;;5162542;28;20501;-46
2023/05/29 06:57:26;;;;;;;2.43;1.77;;;29.40;31.30;;;;;;5166265;28;20654;-46
2023/05/29 06:59:57;;;;;;;4.17;1.77;;;29.90;30.60;;;;;;5182259;28;20435;-45
2023/05/29 07:02:27;;;;;;;3.23;1.77;;;30.20;30.20;;;;;;5150792;28;20180;-46
2023/05/29 07:04:58;;;;;;;4.10;1.60;;;31.40;30.00;;;;;;5184422;28;20187;-46
2023/05/29 07:07:31;;;;;;;1.83;1.73;;;31.50;28.80;;;;;;5183447;28;20944;-46
2023/05/29 07:10:02;;;;;;;6.80;2.00;;;31.20;29.30;;;;;;5177309;28;20536;-46
2023/05/29 07:12:33;;;;;;;1.33;1.33;;;31.30;29.20;;;;;;5176193;28;20971;-46
2023/05/29 07:15:05;;;;;;;4.00;2.23;;;30.40;29.00;;;;;;5175717;28;20447;-46
2023/05/29 07:17:36;;;;;;;2.97;1.70;;;30.30;29.70;;;;;;5182452;28;20188;-46
2023/05/29 07:20:07;;;;;;;3.20;2.80;;;31.00;29.20;;;;;;5176327;28;20444;-47
2023/05/29 07:22:38;;;;;;;6.13;2.20;;;32.20;28.10;;;;;;5182881;28;20200;-47
2023/05/29 07:25:09;;;;;;;1.40;1.33;;;31.90;27.80;;;;;;5161844;28;20808;-47
2023/05/29 07:27:40;;;;;;;1.70;1.37;;;33.10;27.60;;;;;;5162318;28;20551;-46
2023/05/29 07:30:11;;;;;;;2.60;2.00;;;32.60;27.00;;;;;;5164869;28;20184;-45
2023/05/29 07:32:42;;;;;;;0.90;0.90;;;31.50;27.20;;;;;;5176938;28;20289;-46
2023/05/29 07:35:12;;;;;;;1.30;1.20;;;31.80;27.70;;;;;;5160676;28;20613;-46
2023/05/29 07:37:43;;;;;;;1.27;1.27;;;32.20;27.00;;;;;;5162007;28;20180;-46
2023/05/29 07:40:14;;;;;;;2.20;1.57;;;32.80;26.80;;;;;;5162555;28;20188;-47
2023/05/29 07:42:45;;;;;;;1.30;1.20;;;33.50;25.60;;;;;;5150131;28;20210;-46
2023/05/29 07:45:16;;;;;;;1.70;1.60;;;32.70;25.90;;;;;;5164551;28;20234;-45
2023/05/29 07:47:47;;;;;;;1.83;1.70;;;31.30;26.70;;;;;;5177158;28;20278;-45
2023/05/29 07:50:17;;;;;;;3.57;1.80;;;30.10;28.00;;;;;;5161156;28;20482;-46
2023/05/29 07:52:48;;;;;;;2.80;1.50;;;27.70;29.80;;;;;;5178941;28;20203;-45
2023/05/29 07:55:19;;;;;;;2.07;1.83;;;25.80;33.20;;;;;;5163678;28;20180;-45
2023/05/29 07:57:50;;;;;;;2.70;1.83;;;24.80;34.30;;;;;;5160513;28;20184;-46
2023/05/29 08:00:21;;;;;;;4.80;2.00;;;24.50;35.60;;;;;;5156323;28;20188;-46
2023/05/29 08:02:52;;;;;;;1.93;1.70;;;25.90;33.80;;;;;;5180150;28;20216;-46
2023/05/29 08:05:23;;;;;;;1.20;1.20;;;27.80;31.90;;;;;;5167530;28;20450;-45
2023/05/29 08:07:54;;;;;;;3.27;1.30;;;29.00;30.80;;;;;;5161755;28;20819;-45
2023/05/29 08:10:25;;;;;;;1.40;1.30;;;29.50;29.70;;;;;;5169067;28;20211;-45
2023/05/29 08:12:56;;;;;;;8.70;1.70;;;30.40;28.80;;;;;;5169572;28;20652;-49
2023/05/29 08:15:27;;;;;;;1.90;1.47;;;29.80;29.00;;;;;;5167440;28;20181;-47
2023/05/29 08:17:58;;;;;;;1.77;1.67;;;29.30;29.40;;;;;;5183570;28;20427;-46
2023/05/29 08:20:28;;;;;;;2.30;2.10;;;29.20;29.70;;;;;;5168404;28;20499;-45
2023/05/29 08:22:59;;;;;;;1.47;1.47;;;29.40;29.50;;;;;;5185958;28;20303;-46
2023/05/29 08:25:30;;;;;;;1.50;1.40;;;30.00;28.80;;;;;;5182914;28;20202;-46
2023/05/29 08:28:04;;;;;;;5.70;1.87;;;30.60;27.80;;;;;;5169138;28;20584;-47
2023/05/29 08:30:38;;;;;;;1.37;1.27;;;30.90;27.50;;;;;;5161107;28;20458;-47
2023/05/29 08:33:09;;;;;;;3.90;1.93;;;31.30;26.90;;;;;;5178935;28;20454;-46
2023/05/29 08:35:40;;;;;;;1.87;1.77;;;31.00;26.70;;;;;;5181905;28;20435;-46
2023/05/29 08:38:11;;;;;;;2.07;1.83;;;31.00;27.10;;;;;;5183183;28;20180;-47
2023/05/29 08:40:42;;;;;;;5.13;1.93;;;31.40;26.90;;;;;;5186128;28;20431;-47
2023/05/29 08:43:21;;;;;;;1.40;1.27;;;31.30;26.20;;;;;;5181327;28;20707;-47
2023/05/29 08:45:56;;;;;;;2.00;1.90;;;30.90;26.90;;;;;;5181351;28;20594;-46
2023/05/29 08:48:29;;;;;;;5.17;1.50;;;30.30;27.50;;;;;;5184734;28;20514;-46
2023/05/29 08:51:03;;;;;;;1.00;1.00;;;28.40;29.10;;;;;;5166443;28;20502;-47
2023/05/29 08:53:33;;;;;;;1.77;1.67;;;26.10;32.10;;;;;;5167150;28;20461;-44
2023/05/29 08:56:05;;;;;;;1.50;1.40;;;24.30;34.70;;;;;;5183299;28;20512;-45
2023/05/29 08:58:37;;;;;;;2.40;1.90;;;23.60;36.70;;;;;;5168552;28;20295;-45
2023/05/29 09:01:08;;;;;;;1.90;1.70;;;23.10;37.80;;;;;;5169072;28;20485;-46
2023/05/29 09:03:44;;;;;;;1.80;1.70;;;22.80;38.20;;;;;;5178957;28;20967;-45
2023/05/29 09:06:17;;;;;;;1.90;1.47;;;22.50;38.70;;;;;;5181946;28;20449;-47
2023/05/29 09:08:48;;;;;;;1.60;1.60;;;22.00;39.40;;;;;;5159835;28;20442;-46
2023/05/29 09:11:19;;;;;;;2.93;2.30;;;21.80;39.80;;;;;;5160890;28;20469;-45
2023/05/29 09:13:52;;;;;;;4.63;1.93;;;21.90;40.80;;;;;;5149709;28;20228;-47
2023/05/29 09:16:23;;;;;;;1.80;1.70;;;21.90;40.60;;;;;;5166314;28;20474;-45
2023/05/29 09:19:06;;;;;;;1.70;1.70;;;22.20;40.80;;;;;;5182214;28;20824;-45
2023/05/29 09:21:38;;;;;;;1.97;1.87;;;22.40;39.90;;;;;;5165075;28;20180;-46
2023/05/29 09:24:08;;;;;;;2.23;1.40;;;22.50;40.10;;;;;;5163391;28;20461;-47
2023/05/29 09:26:51;;;;;;;3.43;2.50;;;22.40;40.50;;;;;;5177748;28;20442;-47
2023/05/29 09:29:24;;;;;;;4.40;2.53;;;22.00;40.90;;;;;;5176470;28;20470;-47
2023/05/29 09:31:56;;;;;;;10.00;2.40;;;22.00;41.60;;;;;;5177784;28;20521;-45
2023/05/29 09:34:31;;;;;;;4.63;2.00;;;21.60;40.80;;;;;;5166369;28;20459;-45
2023/05/29 09:37:10;;;;;;;1.90;1.80;;;21.60;41.50;;;;;;5177629;28;20443;-46
2023/05/29 09:39:41;;;;;;;3.17;2.97;;;22.00;41.10;;;;;;5185477;28;20521;-46
2023/05/29 09:42:16;;;;;;;2.70;1.80;;;22.30;40.10;;;;;;5180368;28;20478;-46
2023/05/29 09:44:53;;;;;;;2.97;2.33;;;22.40;40.00;;;;;;5215482;23;20506;-45
2023/05/29 09:47:23;;;;;;;3.50;2.20;;;22.40;39.10;;;;;;5198299;28;20520;-45
2023/05/29 09:49:54;;;;;;;2.00;1.80;;;22.60;39.50;;;;;;5198410;28;20454;-45
2023/05/29 09:52:25;;;;;;;2.23;2.03;;;22.80;39.40;;;;;;5179412;28;20180;-46
2023/05/29 09:54:57;;;;;;;4.67;2.60;;;22.60;38.80;;;;;;5179719;28;20504;-45
2023/05/29 09:57:28;;;;;;;6.13;1.90;;;22.20;39.20;;;;;;5179360;28;20902;-45
2023/05/29 10:00:03;;;;;;;3.17;2.50;;;22.30;39.90;;;;;;5158282;28;20448;-44
2023/05/29 10:02:34;;;;;;;1.70;1.60;;;22.30;39.30;;;;;;5178799;28;20446;-46
2023/05/29 10:05:05;;;;;;;2.80;2.60;;;22.40;39.80;;;;;;5185407;28;20822;-46
2023/05/29 10:07:37;;;;;;;2.20;2.00;;;22.10;39.50;;;;;;5184087;28;20202;-46
2023/05/29 10:10:09;;;;;;;3.43;2.00;;;22.20;40.00;;;;;;5182513;28;20546;-44
2023/05/29 10:12:44;;;;;;;2.60;1.90;;;22.10;39.80;;;;;;5183976;28;20439;-45
2023/05/29 10:15:17;;;;;;;2.60;2.20;;;22.40;40.00;;;;;;5184196;28;20461;-45
2023/05/29 10:17:59;;;;;;;2.83;2.53;;;22.20;39.80;;;;;;5181231;28;20558;-45
2023/05/29 10:20:30;;;;;;;3.00;2.60;;;22.20;40.00;;;;;;5185493;28;20445;-46
2023/05/29 10:23:02;;;;;;;3.80;2.40;;;22.20;39.90;;;;;;5184012;28;20439;-46
2023/05/29 10:25:36;;;;;;;1.97;1.87;;;22.40;39.80;;;;;;5172054;28;20429;-46
2023/05/29 10:28:07;;;;;;;3.93;2.60;;;22.30;39.10;;;;;;5188424;28;22048;-46
2023/05/29 10:30:49;;;;;;;4.93;1.93;;;22.10;39.30;;;;;;5175807;28;20508;-46
2023/05/29 10:34:02;;;;;;;2.97;1.97;;;22.00;39.10;;;;;;5188314;28;20199;-45
2023/05/29 10:36:41;;;;;;;2.50;2.40;;;22.00;39.10;;;;;;5178647;28;20450;-46
2023/05/29 10:39:13;;;;;;;2.80;2.60;;;21.80;38.10;;;;;;5183212;28;20437;-45
2023/05/29 10:41:43;;;;;;;3.20;2.30;;;21.50;37.90;;;;;;5186140;28;20439;-47
2023/05/29 10:44:38;;;;;;;3.47;2.40;;;21.40;38.20;;;;;;5181920;28;20477;-46
2023/05/29 10:47:12;;;;;;;5.70;2.47;;;21.40;38.50;;;;;;5181503;28;20176;-44
2023/05/29 10:49:50;;;;;;;6.50;3.20;;;21.50;38.70;;;;;;5184636;28;20781;-47
2023/05/29 10:52:22;;;;;;;4.37;2.70;;;21.80;38.90;;;;;;5180139;28;20463;-46
2023/05/29 10:54:54;;;;;;;3.27;1.70;;;21.90;38.90;;;;;;5183835;28;20889;-44
2023/05/29 10:57:26;;;;;;;3.53;2.13;;;21.90;39.00;;;;;;5184543;28;20435;-46
2023/05/29 11:00:05;;;;;;;9.83;1.90;;;22.00;39.20;;;;;;5163475;28;20521;-46
2023/05/29 11:02:40;;;;;;;2.63;2.43;;;22.00;39.10;;;;;;5181014;28;20442;-46
2023/05/29 11:05:24;;;;;;;3.33;2.13;;;22.10;38.30;;;;;;5180264;28;20431;-45
2023/05/29 11:07:57;;;;;;;1.97;1.73;;;22.10;38.30;;;;;;5183039;28;20430;-45
2023/05/29 11:10:47;;;;;;;2.37;2.27;;;22.40;38.00;;;;;;5164782;28;20546;-45
2023/05/29 11:13:34;;;;;;;3.13;2.20;;;22.40;37.40;;;;;;5169399;28;20459;-44
2023/05/29 11:16:24;;;;;;;3.33;1.43;;;22.20;37.40;;;;;;5158597;28;20508;-47
2023/05/29 11:18:57;;;;;;;3.70;2.30;;;22.00;37.50;;;;;;5183707;28;20519;-46
2023/05/29 11:21:55;;;;;;;4.70;2.10;;;21.70;38.70;;;;;;5179414;28;20496;-45
2023/05/29 11:24:27;;;;;;;2.57;2.40;;;21.60;39.70;;;;;;5180666;28;20462;-46
2023/05/29 11:27:04;;;;;;;2.77;2.53;;;21.50;39.90;;;;;;5182107;28;20828;-45
2023/05/29 11:29:35;;;;;;;4.60;2.20;;;21.40;39.90;;;;;;5182108;28;20462;-45
2023/05/29 11:32:10;;;;;;;3.80;2.30;;;21.20;39.90;;;;;;5182763;28;20470;-45
2023/05/29 11:34:44;;;;;;;2.10;2.00;;;21.20;40.20;;;;;;5183075;28;20470;-45
2023/05/29 11:37:15;;;;;;;1.90;1.90;;;21.30;39.20;;;;;;5181501;28;20547;-46
2023/05/29 11:39:45;;;;;;;2.10;2.00;;;21.20;38.90;;;;;;5180014;28;20443;-46
2023/05/29 11:42:16;;;;;;;4.57;3.23;;;21.30;39.20;;;;;;5179316;28;20492;-45
2023/05/29 11:44:47;;;;;;;3.13;2.63;;;21.40;39.90;;;;;;5181390;28;20299;-45
2023/05/29 11:47:18;;;;;;;7.30;2.20;;;21.40;40.20;;;;;;5163721;28;20552;-45
2023/05/29 11:49:49;;;;;;;11.63;5.07;;;21.40;40.50;;;;;;5182191;28;20196;-45
2023/05/29 11:52:22;;;;;;;2.13;1.80;;;21.70;40.20;;;;;;5182718;28;20450;-45
2023/05/29 11:54:58;;;;;;;2.73;2.40;;;22.10;38.90;;;;;;5182811;28;20275;-45
2023/05/29 11:57:29;;;;;;;4.80;3.13;;;22.40;38.20;;;;;;5179052;28;21139;-45
2023/05/29 12:00:00;;;;;;;5.47;2.77;;;22.80;38.60;;;;;;5182803;28;20437;-45
2023/05/29 12:02:31;;;;;;;3.13;2.40;;;23.40;37.40;;;;;;5182072;28;20435;-45
2023/05/29 12:05:08;;;;;;;3.00;2.70;;;23.70;37.10;;;;;;5180133;28;20219;-45
2023/05/29 12:07:47;;;;;;;2.30;2.20;;;23.40;36.00;;;;;;5181353;28;20188;-45
2023/05/29 12:10:20;;;;;;;3.80;2.53;;;23.10;35.90;;;;;;5176339;28;20471;-47
2023/05/29 12:12:53;;;;;;;3.07;2.60;;;23.20;36.70;;;;;;5189602;28;20462;-46
2023/05/29 12:15:24;;;;;;;2.77;2.57;;;23.00;37.90;;;;;;5169307;28;20463;-46
2023/05/29 12:17:55;;;;;;;6.10;3.30;;;23.00;38.30;;;;;;5182068;28;20464;-46
2023/05/29 12:20:26;;;;;;;6.33;2.83;;;22.90;38.20;;;;;;5173835;28;20940;-44
2023/05/29 12:23:01;;;;;;;6.40;4.00;;;22.60;39.00;;;;;;5181975;28;20439;-45
2023/05/29 12:25:36;;;;;;;3.40;2.00;;;22.50;39.10;;;;;;5181403;28;20530;-45
2023/05/29 12:28:07;;;;;;;2.87;1.97;;;22.20;38.70;;;;;;5179831;28;20458;-45
2023/05/29 12:30:39;;;;;;;7.73;3.40;;;21.80;39.10;;;;;;5162731;28;20893;-45
2023/05/29 12:33:24;;;;;;;3.23;2.80;;;21.60;39.30;;;;;;5162064;28;20227;-45
2023/05/29 12:36:01;;;;;;;14.83;4.90;;;21.70;39.70;;;;;;5174090;28;20495;-46
2023/05/29 12:38:33;;;;;;;2.40;2.27;;;21.90;39.70;;;;;;5171257;28;20825;-46
2023/05/29 12:41:04;;;;;;;1.87;1.80;;;21.80;38.10;;;;;;5155895;28;20511;-47
2023/05/29 12:43:35;;;;;;;2.60;2.27;;;21.70;37.20;;;;;;5181438;28;20521;-45
2023/05/29 12:46:06;;;;;;;3.57;2.57;;;21.70;37.80;;;;;;5186287;28;20255;-44
2023/05/29 12:48:39;;;;;;;4.30;2.10;;;21.90;37.90;;;;;;5184297;28;20443;-46
2023/05/29 12:51:10;;;;;;;2.10;2.00;;;22.00;37.10;;;;;;5188989;28;20470;-47
2023/05/29 12:53:40;;;;;;;2.17;2.00;;;22.00;37.80;;;;;;5192042;28;20459;-45
2023/05/29 12:56:11;;;;;;;2.93;2.73;;;22.00;38.40;;;;;;5192206;28;20283;-44
2023/05/29 12:58:42;;;;;;;3.40;3.20;;;22.20;39.00;;;;;;5188576;28;20256;-44
2023/05/29 13:01:16;;;;;;;2.40;2.30;;;22.30;38.40;;;;;;5192294;28;20220;-45
2023/05/29 13:03:46;;;;;;;3.17;3.00;;;22.30;38.10;;;;;;5192772;28;20302;-45
2023/05/29 13:06:17;;;;;;;5.00;2.90;;;22.30;37.80;;;;;;5190318;28;20471;-44
2023/05/29 13:08:48;;;;;;;16.77;2.47;;;22.40;38.10;;;;;;5192821;28;20177;-45
2023/05/29 13:11:20;;;;;;;2.50;1.80;;;22.40;37.40;;;;;;5174179;28;20546;-45
2023/05/29 13:13:50;;;;;;;6.30;3.50;;;22.30;37.70;;;;;;5188408;28;20201;-47